Time;durP1;ratioP1;P1;durP2;ratioP2;P2;SDS_P1;SDS_P2;PMS_P1;PMS_P2;Temp;Humidity;BMP_temperature;BMP_pressure;BME280_temperature;BME280_humidity;BME280_pressure;Samples;Min_cycle;Max_cycle;Signal;HPM_P1;HPM_P2
2021/10/11 00:01:09;;;;;;;13.70;11.87;;;5.40;99.90;;;;;;6242813;22;20166;-84
2021/10/11 00:03:35;;;;;;;15.33;11.93;;;5.40;99.90;;;;;;6243893;22;20584;-84
2021/10/11 00:06:00;;;;;;;13.70;12.00;;;5.40;99.90;;;;;;6242726;22;20445;-84
2021/10/11 00:08:26;;;;;;;13.53;12.03;;;5.40;99.90;;;;;;6242815;22;20166;-84
2021/10/11 00:10:52;;;;;;;15.67;12.40;;;5.30;99.90;;;;;;6242920;22;20156;-84
2021/10/11 00:13:24;;;;;;;14.60;11.60;;;5.30;99.90;;;;;;6243359;22;20244;-84
2021/10/11 00:15:50;;;;;;;13.67;12.20;;;5.30;99.90;;;;;;6243716;22;20202;-84
2021/10/11 00:18:18;;;;;;;13.97;12.20;;;5.20;99.90;;;;;;6242742;22;20884;-84
2021/10/11 00:20:44;;;;;;;15.30;12.10;;;5.20;99.90;;;;;;6239581;22;20169;-84
2021/10/11 00:23:11;;;;;;;16.07;13.20;;;5.10;99.90;;;;;;6243419;22;20402;-84
2021/10/11 00:25:37;;;;;;;14.00;11.57;;;4.90;99.90;;;;;;6243370;22;20212;-85
2021/10/11 00:28:03;;;;;;;17.00;12.50;;;4.80;99.90;;;;;;6243273;22;20505;-84
2021/10/11 00:30:29;;;;;;;15.00;11.53;;;4.80;99.90;;;;;;6243477;22;20700;-85
2021/10/11 00:32:55;;;;;;;13.50;12.10;;;4.70;99.90;;;;;;6243796;22;20396;-84
2021/10/11 00:35:30;;;;;;;14.50;11.70;;;4.50;99.90;;;;;;6243272;22;20638;-84
2021/10/11 00:38:09;;;;;;;16.10;11.63;;;4.40;99.90;;;;;;6243745;22;20170;-84
2021/10/11 00:40:35;;;;;;;15.33;11.63;;;4.40;99.90;;;;;;6251997;22;20443;-85
2021/10/11 00:43:01;;;;;;;16.00;10.73;;;4.30;99.90;;;;;;6252651;22;20837;-84
2021/10/11 00:45:27;;;;;;;14.50;11.33;;;4.30;99.90;;;;;;6242934;22;20244;-84
2021/10/11 00:47:52;;;;;;;15.30;10.93;;;4.40;99.90;;;;;;6243566;22;20171;-84
2021/10/11 00:50:18;;;;;;;15.17;10.83;;;4.30;99.90;;;;;;6243223;22;20162;-84
2021/10/11 00:52:45;;;;;;;13.63;11.23;;;4.30;99.90;;;;;;6242619;22;20482;-84
2021/10/11 00:55:11;;;;;;;16.60;11.37;;;4.40;99.90;;;;;;6243187;22;20251;-85
2021/10/11 00:57:37;;;;;;;15.47;11.37;;;4.40;99.90;;;;;;6242945;22;20385;-84
2021/10/11 01:00:05;;;;;;;15.20;11.47;;;4.40;99.90;;;;;;6242304;22;20249;-85
2021/10/11 01:02:30;;;;;;;15.93;11.23;;;4.50;99.90;;;;;;6242951;22;20184;-84
2021/10/11 01:04:56;;;;;;;12.77;11.47;;;4.50;99.90;;;;;;6242527;22;20448;-84
2021/10/11 01:07:22;;;;;;;16.10;12.13;;;4.50;99.90;;;;;;6241888;22;20202;-84
2021/10/11 01:09:47;;;;;;;18.23;12.40;;;4.40;99.90;;;;;;6242253;22;20680;-84
2021/10/11 01:12:13;;;;;;;13.83;12.43;;;4.50;99.90;;;;;;6242884;22;20277;-84
2021/10/11 01:14:39;;;;;;;15.97;13.97;;;4.50;99.90;;;;;;6242473;22;20194;-84
2021/10/11 01:17:05;;;;;;;16.00;13.03;;;4.40;99.90;;;;;;6242963;22;20451;-84
2021/10/11 01:19:31;;;;;;;18.17;13.27;;;4.40;99.90;;;;;;6243590;22;20166;-84
2021/10/11 01:21:56;;;;;;;18.43;14.50;;;4.40;99.90;;;;;;6242403;22;20154;-84
2021/10/11 01:24:22;;;;;;;16.47;14.50;;;4.40;99.90;;;;;;6242322;22;20709;-83
2021/10/11 01:26:48;;;;;;;20.33;15.07;;;4.40;99.90;;;;;;6242730;22;20166;-84
2021/10/11 01:29:23;;;;;;;17.97;14.37;;;4.40;99.90;;;;;;6242591;22;20167;-84
2021/10/11 01:31:49;;;;;;;17.03;14.50;;;4.40;99.90;;;;;;6242214;22;20264;-83
2021/10/11 01:34:17;;;;;;;18.50;13.73;;;4.40;99.90;;;;;;6241547;22;20537;-84
2021/10/11 01:36:42;;;;;;;22.00;15.23;;;4.40;99.90;;;;;;6242006;22;20401;-84
2021/10/11 01:39:09;;;;;;;18.90;15.00;;;4.30;99.90;;;;;;6242625;22;20639;-83
2021/10/11 01:41:38;;;;;;;16.47;14.77;;;4.30;99.90;;;;;;6242508;22;20566;-84
2021/10/11 01:44:05;;;;;;;18.87;14.33;;;4.30;99.90;;;;;;6242490;22;20390;-84
2021/10/11 01:46:30;;;;;;;18.97;15.37;;;4.20;99.90;;;;;;6242321;22;20393;-84
2021/10/11 01:48:56;;;;;;;15.33;12.53;;;4.30;99.90;;;;;;6242026;22;20961;-84
2021/10/11 01:51:22;;;;;;;15.20;13.07;;;4.30;99.90;;;;;;6242011;22;20166;-84
2021/10/11 01:53:49;;;;;;;17.90;14.73;;;4.30;99.90;;;;;;6242209;22;20397;-84
2021/10/11 01:56:14;;;;;;;15.47;13.17;;;4.20;99.90;;;;;;6242537;22;20770;-84
2021/10/11 01:58:40;;;;;;;16.73;13.50;;;4.20;99.90;;;;;;6241572;22;20390;-84
2021/10/11 02:01:09;;;;;;;18.60;13.60;;;4.10;99.90;;;;;;6242432;22;20164;-84
2021/10/11 02:03:35;;;;;;;14.37;12.87;;;4.10;99.90;;;;;;6242743;22;20390;-84
2021/10/11 02:06:00;;;;;;;16.53;12.97;;;4.10;99.90;;;;;;6242833;22;20416;-84
2021/10/11 02:08:26;;;;;;;16.07;14.00;;;4.00;99.90;;;;;;6243427;22;20466;-84
2021/10/11 02:10:52;;;;;;;18.03;12.53;;;4.00;99.90;;;;;;6252461;22;20164;-84
2021/10/11 02:13:18;;;;;;;14.03;11.57;;;4.00;99.90;;;;;;6250650;22;20192;-84
2021/10/11 02:15:43;;;;;;;14.27;12.80;;;4.10;99.90;;;;;;6241542;22;20219;-84
2021/10/11 02:18:09;;;;;;;15.10;12.70;;;3.90;99.90;;;;;;6242627;22;20246;-83
2021/10/11 02:20:35;;;;;;;13.73;12.27;;;3.90;99.90;;;;;;6242700;22;20590;-84
2021/10/11 02:23:02;;;;;;;17.27;13.57;;;4.00;99.90;;;;;;6242514;22;20828;-84
2021/10/11 02:25:28;;;;;;;16.50;13.30;;;4.00;99.90;;;;;;6242075;22;20187;-84
2021/10/11 02:27:53;;;;;;;18.60;14.47;;;4.00;99.90;;;;;;6242494;22;20826;-84
2021/10/11 02:30:19;;;;;;;17.23;13.10;;;4.00;99.90;;;;;;6242797;22;20557;-84
2021/10/11 02:32:45;;;;;;;18.47;13.73;;;4.00;99.90;;;;;;6242102;22;20500;-84
2021/10/11 02:35:11;;;;;;;17.20;13.33;;;4.00;99.90;;;;;;6242008;22;20191;-84
2021/10/11 02:37:37;;;;;;;17.93;14.23;;;4.00;99.90;;;;;;6242454;22;20166;-84
2021/10/11 02:40:04;;;;;;;19.90;15.13;;;4.00;99.90;;;;;;6242828;22;20193;-84
2021/10/11 02:42:30;;;;;;;18.80;13.13;;;4.00;99.90;;;;;;6242392;22;20402;-84
2021/10/11 02:44:55;;;;;;;18.60;14.40;;;4.00;99.90;;;;;;6239764;22;20444;-84
2021/10/11 02:47:21;;;;;;;16.03;14.30;;;4.00;99.90;;;;;;6239963;22;20402;-84
2021/10/11 02:49:47;;;;;;;16.70;13.43;;;4.00;99.90;;;;;;6244310;22;20209;-84
2021/10/11 02:52:12;;;;;;;17.90;12.67;;;4.00;99.90;;;;;;6244157;22;20162;-84
2021/10/11 02:54:38;;;;;;;17.17;13.50;;;3.90;99.90;;;;;;6243770;22;20201;-84
2021/10/11 02:57:05;;;;;;;14.23;11.50;;;3.90;99.90;;;;;;6244254;22;20190;-84
2021/10/11 02:59:31;;;;;;;19.17;12.33;;;3.90;99.90;;;;;;6244213;22;20410;-84
2021/10/11 03:01:56;;;;;;;15.63;13.13;;;4.00;99.90;;;;;;6243844;22;20423;-83
2021/10/11 03:04:22;;;;;;;16.60;13.77;;;3.90;99.90;;;;;;6243449;22;20601;-84
2021/10/11 03:06:50;;;;;;;16.77;12.67;;;3.90;99.90;;;;;;6244293;22;20184;-84
2021/10/11 03:09:16;;;;;;;17.20;13.07;;;3.80;99.90;;;;;;6243803;22;20237;-84
2021/10/11 03:11:41;;;;;;;20.73;13.67;;;3.80;99.90;;;;;;6243865;22;21348;-84
2021/10/11 03:14:07;;;;;;;15.83;12.53;;;3.80;99.90;;;;;;6243529;22;20659;-83
2021/10/11 03:16:34;;;;;;;18.20;13.70;;;3.80;99.90;;;;;;6244911;22;20240;-83
2021/10/11 03:19:00;;;;;;;16.27;13.53;;;3.70;99.90;;;;;;6243021;22;20159;-84
2021/10/11 03:21:25;;;;;;;17.93;13.73;;;3.60;99.90;;;;;;6243757;22;20446;-84
2021/10/11 03:23:52;;;;;;;14.90;12.30;;;3.60;99.90;;;;;;6244684;22;20193;-84
2021/10/11 03:26:19;;;;;;;16.47;13.13;;;3.70;99.90;;;;;;6244755;22;20163;-84
2021/10/11 03:28:45;;;;;;;15.37;13.77;;;3.60;99.90;;;;;;6244176;22;20413;-84
2021/10/11 03:31:10;;;;;;;18.10;14.57;;;3.70;99.90;;;;;;6244558;22;21152;-84
2021/10/11 03:33:36;;;;;;;18.10;13.10;;;3.70;99.90;;;;;;6243554;22;20757;-83
2021/10/11 03:36:06;;;;;;;16.43;13.23;;;3.60;99.90;;;;;;6244146;22;20174;-84
2021/10/11 03:38:32;;;;;;;15.53;12.83;;;3.60;99.90;;;;;;6244848;22;20454;-84
2021/10/11 03:40:58;;;;;;;15.07;12.90;;;3.60;99.90;;;;;;6255362;22;20396;-85
2021/10/11 03:43:23;;;;;;;15.50;12.93;;;3.70;99.90;;;;;;6250992;22;20400;-84
2021/10/11 03:45:49;;;;;;;17.10;13.70;;;3.60;99.90;;;;;;6243691;22;20448;-84
2021/10/11 03:48:15;;;;;;;16.33;12.63;;;3.50;99.90;;;;;;6243672;22;20605;-84
2021/10/11 03:50:45;;;;;;;15.80;13.30;;;3.50;99.90;;;;;;6243934;22;20479;-84
2021/10/11 03:53:16;;;;;;;14.13;12.50;;;3.50;99.90;;;;;;6244817;22;20178;-85
2021/10/11 03:55:42;;;;;;;17.07;13.43;;;3.50;99.90;;;;;;6243617;22;20440;-85
2021/10/11 03:58:08;;;;;;;16.23;13.20;;;3.50;99.90;;;;;;6243620;22;20408;-85
2021/10/11 04:00:34;;;;;;;17.47;14.50;;;3.50;99.90;;;;;;6243116;22;20158;-84
2021/10/11 04:03:03;;;;;;;15.30;13.60;;;3.50;99.90;;;;;;6244227;22;20166;-85
2021/10/11 04:05:28;;;;;;;17.30;13.03;;;3.40;99.90;;;;;;6243307;22;20268;-84
2021/10/11 04:07:57;;;;;;;17.20;13.40;;;3.50;99.90;;;;;;6243469;22;20874;-84
2021/10/11 04:10:28;;;;;;;16.13;13.30;;;3.50;99.90;;;;;;6243720;22;20169;-84
2021/10/11 04:13:00;;;;;;;14.70;11.37;;;3.40;99.90;;;;;;6243797;22;20389;-84
2021/10/11 04:15:26;;;;;;;18.23;13.37;;;3.30;99.90;;;;;;6240630;22;20512;-84
2021/10/11 04:17:54;;;;;;;21.20;14.40;;;3.20;99.90;;;;;;6242620;22;20427;-84
2021/10/11 04:20:20;;;;;;;15.70;12.50;;;3.20;99.90;;;;;;6242556;22;20175;-84
2021/10/11 04:22:45;;;;;;;16.30;13.60;;;3.30;99.90;;;;;;6243122;22;20723;-84
2021/10/11 04:25:11;;;;;;;14.13;12.60;;;3.20;99.90;;;;;;6242183;22;20259;-84
2021/10/11 04:27:39;;;;;;;16.47;13.13;;;3.10;99.90;;;;;;6242890;22;20166;-84
2021/10/11 04:30:08;;;;;;;15.63;12.27;;;3.20;99.90;;;;;;6244038;22;20489;-84
2021/10/11 04:32:34;;;;;;;17.30;12.77;;;3.00;99.90;;;;;;6242695;22;20776;-84
2021/10/11 04:35:00;;;;;;;17.93;12.53;;;3.00;99.90;;;;;;6242238;22;20459;-84
2021/10/11 04:37:26;;;;;;;19.97;13.73;;;3.00;99.90;;;;;;6243086;22;20197;-84
2021/10/11 04:39:52;;;;;;;15.10;13.47;;;3.00;99.90;;;;;;6243459;22;20755;-84
2021/10/11 04:42:19;;;;;;;18.63;13.17;;;2.90;99.90;;;;;;6242767;22;20396;-84
2021/10/11 04:44:45;;;;;;;17.30;13.80;;;2.90;99.90;;;;;;6242281;22;20718;-84
2021/10/11 04:47:11;;;;;;;17.67;13.57;;;2.80;99.90;;;;;;6244023;22;20400;-84
2021/10/11 04:49:37;;;;;;;19.90;13.67;;;2.90;99.90;;;;;;6242449;22;20608;-83
2021/10/11 04:52:02;;;;;;;17.13;13.80;;;3.00;99.90;;;;;;6242901;22;20406;-83
2021/10/11 04:54:28;;;;;;;22.47;13.53;;;3.00;99.90;;;;;;6242756;22;20644;-84
2021/10/11 04:56:54;;;;;;;18.20;13.70;;;3.10;99.90;;;;;;6243643;22;20447;-83
2021/10/11 04:59:19;;;;;;;16.73;13.07;;;3.00;99.90;;;;;;6243526;22;20166;-84
2021/10/11 05:01:45;;;;;;;17.23;13.70;;;3.00;99.90;;;;;;6243775;22;20273;-84
2021/10/11 05:04:11;;;;;;;16.27;14.07;;;3.00;99.90;;;;;;6243156;22;20170;-84
2021/10/11 05:06:37;;;;;;;19.87;15.50;;;2.90;99.90;;;;;;6243204;22;20261;-83
2021/10/11 05:09:03;;;;;;;15.70;14.00;;;2.80;99.90;;;;;;6244451;22;20173;-84
2021/10/11 05:11:29;;;;;;;19.80;13.63;;;2.70;99.90;;;;;;6262336;22;20418;-84
2021/10/11 05:13:55;;;;;;;17.30;13.10;;;2.70;99.90;;;;;;6244354;22;20400;-84
2021/10/11 05:16:22;;;;;;;18.57;13.67;;;2.70;99.90;;;;;;6243271;22;20405;-84
2021/10/11 05:18:48;;;;;;;17.23;13.70;;;2.60;99.90;;;;;;6243548;22;20388;-84
2021/10/11 05:21:14;;;;;;;15.80;13.47;;;2.50;99.90;;;;;;6242822;22;20388;-85
2021/10/11 05:23:39;;;;;;;15.87;13.13;;;2.50;99.90;;;;;;6242689;22;20393;-84
2021/10/11 05:26:05;;;;;;;15.40;13.03;;;2.40;99.90;;;;;;6242667;22;20168;-84
2021/10/11 05:28:31;;;;;;;18.07;15.23;;;2.50;99.90;;;;;;6243344;22;20166;-84
2021/10/11 05:30:56;;;;;;;17.23;13.77;;;2.60;99.90;;;;;;6243067;22;20185;-84
2021/10/11 05:33:22;;;;;;;18.07;16.00;;;2.60;99.90;;;;;;6242790;22;20198;-84
2021/10/11 05:35:50;;;;;;;24.50;17.10;;;2.80;99.90;;;;;;6239680;22;20194;-84
2021/10/11 05:38:16;;;;;;;21.90;17.17;;;3.00;99.90;;;;;;6242513;22;20719;-84
2021/10/11 05:40:42;;;;;;;22.63;16.60;;;3.00;99.90;;;;;;6242787;22;20400;-84
2021/10/11 05:43:07;;;;;;;15.63;14.00;;;3.00;99.90;;;;;;6242692;22;20389;-84
2021/10/11 05:45:33;;;;;;;22.43;15.80;;;3.10;99.90;;;;;;6240983;22;20624;-84
2021/10/11 05:47:59;;;;;;;18.50;13.90;;;3.10;99.90;;;;;;6242862;22;20275;-84
2021/10/11 05:50:25;;;;;;;18.37;13.60;;;3.00;99.90;;;;;;6242677;22;20421;-84
2021/10/11 05:52:51;;;;;;;19.00;15.10;;;3.00;99.90;;;;;;6241869;22;20162;-84
2021/10/11 05:55:16;;;;;;;21.03;14.53;;;3.20;99.90;;;;;;6242669;22;20509;-83
2021/10/11 05:57:42;;;;;;;17.63;14.37;;;3.20;99.90;;;;;;6241841;22;20412;-83
2021/10/11 06:00:09;;;;;;;20.70;14.10;;;3.20;99.90;;;;;;6242511;22;20231;-83
2021/10/11 06:02:35;;;;;;;19.70;14.80;;;3.20;99.90;;;;;;6242218;22;20479;-84
2021/10/11 06:05:01;;;;;;;20.40;14.93;;;3.10;99.90;;;;;;6241293;22;20807;-84
2021/10/11 06:07:27;;;;;;;18.50;14.93;;;3.10;99.90;;;;;;6242980;22;20208;-85
2021/10/11 06:10:13;;;;;;;19.77;14.60;;;3.00;99.90;;;;;;6240873;22;20403;-85
2021/10/11 06:12:42;;;;;;;16.60;14.40;;;3.10;99.90;;;;;;6266269;22;20389;-84
2021/10/11 06:15:08;;;;;;;20.03;14.80;;;3.00;99.90;;;;;;6240846;22;20491;-84
2021/10/11 06:17:34;;;;;;;19.53;14.37;;;3.00;99.90;;;;;;6241236;22;20390;-83
2021/10/11 06:20:14;;;;;;;17.13;14.23;;;3.00;99.90;;;;;;6242416;22;20405;-88
2021/10/11 06:22:41;;;;;;;16.90;13.10;;;3.10;99.90;;;;;;6242491;22;20168;-88
2021/10/11 06:25:07;;;;;;;19.30;13.17;;;3.20;99.90;;;;;;6242121;22;20458;-88
2021/10/11 06:27:33;;;;;;;17.03;12.97;;;3.20;99.90;;;;;;6243004;22;20397;-88
2021/10/11 06:29:59;;;;;;;17.13;13.53;;;3.30;99.90;;;;;;6242751;22;20405;-89
2021/10/11 06:32:25;;;;;;;19.63;14.87;;;3.10;99.90;;;;;;6242514;22;20443;-88
2021/10/11 06:34:50;;;;;;;16.37;13.50;;;3.10;99.90;;;;;;6266475;22;20527;-88
2021/10/11 06:37:16;;;;;;;16.27;13.50;;;3.10;99.90;;;;;;6242635;22;20183;-88
2021/10/11 06:39:42;;;;;;;21.40;14.40;;;3.10;99.90;;;;;;6246424;22;20167;-87
2021/10/11 06:42:15;;;;;;;25.50;13.50;;;3.10;99.90;;;;;;6261525;22;20220;-89
2021/10/11 06:44:41;;;;;;;28.47;13.60;;;3.10;99.90;;;;;;6243487;22;20173;-88
2021/10/11 06:47:06;;;;;;;22.83;14.23;;;3.00;99.90;;;;;;6242590;22;20468;-88
2021/10/11 06:49:33;;;;;;;15.87;13.50;;;2.90;99.90;;;;;;6241870;22;20408;-88
2021/10/11 06:51:59;;;;;;;24.03;13.93;;;3.00;99.90;;;;;;6269994;22;20193;-90
2021/10/11 06:54:24;;;;;;;25.60;14.50;;;3.00;99.90;;;;;;6241990;22;20447;-88
2021/10/11 06:56:50;;;;;;;20.63;12.70;;;3.10;99.90;;;;;;6242145;22;20158;-87
2021/10/11 06:59:16;;;;;;;54.03;13.60;;;3.20;99.90;;;;;;6242063;22;20166;-88
2021/10/11 07:01:43;;;;;;;21.87;13.07;;;3.20;99.90;;;;;;6241911;22;20241;-87
2021/10/11 07:04:10;;;;;;;22.03;13.90;;;3.30;99.90;;;;;;6241702;22;20292;-90
2021/10/11 07:06:35;;;;;;;20.93;13.80;;;3.10;99.90;;;;;;6242932;22;20746;-90
2021/10/11 07:09:02;;;;;;;24.70;15.17;;;3.20;99.90;;;;;;6243267;22;20428;-90
2021/10/11 07:11:28;;;;;;;21.73;14.77;;;3.20;99.90;;;;;;6244895;22;20772;-91
2021/10/11 07:13:53;;;;;;;19.77;14.37;;;3.40;99.90;;;;;;6243352;22;20439;-91
2021/10/11 07:16:19;;;;;;;16.47;14.37;;;3.60;99.90;;;;;;6244487;22;20501;-92
2021/10/11 07:18:44;;;;;;;17.50;14.50;;;3.70;99.90;;;;;;6245935;22;20622;-96
2021/10/11 07:21:10;;;;;;;20.03;14.50;;;4.00;99.90;;;;;;6243860;22;20159;-91
2021/10/11 07:23:36;;;;;;;20.93;14.40;;;4.10;99.90;;;;;;6245452;22;20186;-93
2021/10/11 07:26:05;;;;;;;18.30;13.90;;;4.30;99.90;;;;;;6245065;22;20576;-91
2021/10/11 07:28:30;;;;;;;17.80;13.93;;;4.40;99.90;;;;;;6244351;22;20397;-93
2021/10/11 07:30:56;;;;;;;19.40;13.77;;;4.60;99.90;;;;;;6250108;22;20462;-93
2021/10/11 07:33:23;;;;;;;15.87;13.67;;;4.80;99.90;;;;;;6243382;22;20247;-90
2021/10/11 07:35:49;;;;;;;15.33;12.90;;;4.90;99.90;;;;;;6242359;22;20439;-89
2021/10/11 07:38:15;;;;;;;19.40;14.43;;;5.10;99.90;;;;;;6244823;22;20468;-88
2021/10/11 07:40:41;;;;;;;18.40;13.97;;;5.30;99.90;;;;;;6243932;22;20466;-89
2021/10/11 07:43:07;;;;;;;16.87;13.80;;;5.40;99.90;;;;;;6244802;22;20879;-88
2021/10/11 07:45:39;;;;;;;17.80;14.80;;;5.40;99.90;;;;;;6247367;22;20168;-91
2021/10/11 07:48:05;;;;;;;16.27;13.77;;;5.10;99.90;;;;;;6250051;22;20462;-92
2021/10/11 07:50:30;;;;;;;16.67;14.37;;;5.10;99.90;;;;;;6250322;22;20789;-92
2021/10/11 07:53:03;;;;;;;18.13;14.57;;;5.20;99.90;;;;;;6245527;22;20165;-90
2021/10/11 07:55:29;;;;;;;17.70;15.23;;;5.50;99.90;;;;;;6247643;22;20186;-94
2021/10/11 07:57:55;;;;;;;14.60;12.37;;;5.60;99.90;;;;;;6245432;22;20443;-90
2021/10/11 08:00:27;;;;;;;17.07;13.73;;;5.90;99.90;;;;;;6245056;22;20261;-90
2021/10/11 08:02:53;;;;;;;13.33;11.80;;;6.10;99.90;;;;;;6244446;22;20246;-90
2021/10/11 08:05:18;;;;;;;15.30;12.67;;;6.40;99.90;;;;;;6244439;22;20420;-90
2021/10/11 08:07:44;;;;;;;17.63;13.20;;;6.60;99.90;;;;;;6244584;22;20235;-89
2021/10/11 08:10:11;;;;;;;14.80;12.70;;;7.00;99.90;;;;;;6253172;22;20218;-90
2021/10/11 08:12:38;;;;;;;16.33;14.17;;;7.20;99.90;;;;;;6259134;22;20910;-91
2021/10/11 08:15:05;;;;;;;15.93;12.70;;;7.30;99.90;;;;;;6245034;22;20809;-90
2021/10/11 08:17:30;;;;;;;16.40;14.00;;;7.50;99.90;;;;;;6244309;22;20397;-90
2021/10/11 08:19:56;;;;;;;15.37;12.70;;;7.80;99.90;;;;;;6245028;22;20775;-91
2021/10/11 08:22:22;;;;;;;17.43;14.23;;;7.70;99.90;;;;;;6243915;22;20180;-89
2021/10/11 08:24:49;;;;;;;16.50;13.70;;;7.90;99.90;;;;;;6244385;22;20470;-90
2021/10/11 08:27:18;;;;;;;17.33;14.40;;;8.10;99.90;;;;;;6245045;22;20530;-90
2021/10/11 08:29:51;;;;;;;16.67;14.63;;;8.20;99.90;;;;;;6242604;22;20402;-90
2021/10/11 08:32:20;;;;;;;15.10;12.90;;;8.40;99.90;;;;;;6244510;22;20384;-89
2021/10/11 08:34:46;;;;;;;13.53;12.13;;;8.70;99.90;;;;;;6245118;22;20518;-89
2021/10/11 08:37:12;;;;;;;17.20;14.67;;;8.50;99.90;;;;;;6243204;22;21027;-90
2021/10/11 08:39:37;;;;;;;16.13;13.37;;;8.60;99.90;;;;;;6243769;22;20172;-90
2021/10/11 08:42:04;;;;;;;16.30;12.70;;;8.70;99.90;;;;;;6244283;22;20456;-91
2021/10/11 08:44:35;;;;;;;16.60;13.70;;;8.90;99.90;;;;;;6243409;22;20169;-90
2021/10/11 08:47:02;;;;;;;14.43;12.53;;;9.00;99.90;;;;;;6243545;22;20442;-91
2021/10/11 08:49:34;;;;;;;16.50;13.57;;;9.30;99.90;;;;;;6244419;22;20684;-93
2021/10/11 08:52:00;;;;;;;15.00;12.20;;;9.60;99.90;;;;;;6243131;22;20397;-90
2021/10/11 08:54:25;;;;;;;13.83;12.33;;;9.80;99.90;;;;;;6243447;22;20536;-91
2021/10/11 08:56:51;;;;;;;19.13;13.70;;;9.80;99.90;;;;;;6244971;22;20165;-90
2021/10/11 08:59:28;;;;;;;14.50;12.43;;;9.90;99.90;;;;;;6245795;22;20169;-92
2021/10/11 09:02:02;;;;;;;14.30;12.80;;;10.20;99.90;;;;;;6246973;22;20599;-92
2021/10/11 09:04:27;;;;;;;17.10;13.20;;;10.40;99.90;;;;;;6245753;22;20399;-92
2021/10/11 09:07:02;;;;;;;16.70;13.77;;;10.60;99.90;;;;;;6246838;22;20397;-92
2021/10/11 09:09:28;;;;;;;15.80;13.60;;;10.90;99.90;;;;;;6247121;22;20550;-93
2021/10/11 09:11:53;;;;;;;15.03;13.30;;;11.30;99.90;;;;;;6247329;22;20393;-91
2021/10/11 09:14:24;;;;;;;17.00;14.00;;;11.60;99.90;;;;;;6246087;22;20524;-91
2021/10/11 09:17:04;;;;;;;16.17;14.27;;;11.50;99.90;;;;;;6245688;22;20163;-91
2021/10/11 09:19:45;;;;;;;15.07;13.67;;;11.40;99.90;;;;;;6241271;22;20400;-92
2021/10/11 09:22:11;;;;;;;15.63;13.93;;;11.40;99.90;;;;;;6244776;22;20769;-92
2021/10/11 09:24:36;;;;;;;16.60;12.97;;;11.60;99.90;;;;;;6243917;22;20405;-92
2021/10/11 09:27:02;;;;;;;15.50;13.90;;;11.50;99.90;;;;;;6245190;22;20297;-92
2021/10/11 09:29:32;;;;;;;18.47;13.90;;;11.20;99.90;;;;;;6243775;22;20203;-92
2021/10/11 09:32:00;;;;;;;16.70;12.90;;;11.30;99.90;;;;;;6245808;22;20200;-92
2021/10/11 09:34:28;;;;;;;16.27;14.40;;;11.40;99.90;;;;;;6244272;22;20432;-93
2021/10/11 09:36:57;;;;;;;17.07;13.80;;;11.40;99.90;;;;;;6242837;22;20385;-88
2021/10/11 09:39:24;;;;;;;15.87;14.20;;;11.60;99.90;;;;;;6244071;22;20443;-89
2021/10/11 09:41:56;;;;;;;16.40;13.60;;;11.40;99.90;;;;;;6256720;22;20396;-86
2021/10/11 09:44:29;;;;;;;14.53;13.00;;;11.70;99.90;;;;;;6242427;22;20438;-86
2021/10/11 09:47:01;;;;;;;16.10;13.93;;;11.70;99.90;;;;;;6241977;22;20894;-86
2021/10/11 09:49:27;;;;;;;16.13;13.50;;;11.60;99.90;;;;;;6241447;22;20388;-86
2021/10/11 09:51:54;;;;;;;15.20;13.10;;;11.60;99.90;;;;;;6242214;22;20404;-86
2021/10/11 09:54:21;;;;;;;15.77;14.07;;;11.60;99.90;;;;;;6241417;22;20198;-86
2021/10/11 09:56:47;;;;;;;17.03;13.87;;;12.00;99.90;;;;;;6242580;22;20389;-87
2021/10/11 09:59:20;;;;;;;16.80;15.00;;;11.80;99.90;;;;;;6242714;22;20466;-86
2021/10/11 10:01:47;;;;;;;18.93;15.30;;;12.10;99.90;;;;;;6242579;22;20891;-88
2021/10/11 10:04:35;;;;;;;15.80;14.20;;;12.20;99.90;;;;;;6242353;22;20381;-87
2021/10/11 10:07:06;;;;;;;20.00;13.53;;;12.30;99.90;;;;;;6242773;22;20436;-88
2021/10/11 10:09:35;;;;;;;17.07;14.80;;;12.80;99.90;;;;;;6243555;22;20393;-88
2021/10/11 10:12:05;;;;;;;15.03;13.43;;;13.20;99.90;;;;;;6241629;22;20546;-87
2021/10/11 10:14:33;;;;;;;17.13;15.43;;;13.40;99.90;;;;;;6242527;22;20460;-87
2021/10/11 10:16:59;;;;;;;16.07;13.43;;;13.60;99.90;;;;;;6242446;22;20400;-88
2021/10/11 10:19:39;;;;;;;15.80;14.30;;;13.70;99.10;;;;;;6243245;22;20405;-88
2021/10/11 10:22:11;;;;;;;18.97;14.30;;;13.80;98.90;;;;;;6240185;22;20768;-88
2021/10/11 10:24:36;;;;;;;15.97;14.10;;;13.70;98.90;;;;;;6241595;22;20401;-89
2021/10/11 10:27:08;;;;;;;16.57;14.70;;;14.00;98.50;;;;;;6243138;22;20477;-89
2021/10/11 10:29:48;;;;;;;17.50;15.80;;;14.40;98.70;;;;;;6241637;22;20304;-88
2021/10/11 10:32:20;;;;;;;15.77;14.17;;;14.50;99.80;;;;;;6241581;22;20403;-87
2021/10/11 10:34:57;;;;;;;15.97;14.43;;;14.70;97.70;;;;;;6240930;22;20445;-88
2021/10/11 10:37:34;;;;;;;18.23;16.30;;;15.30;97.20;;;;;;6251775;22;20381;-87
2021/10/11 10:40:07;;;;;;;17.87;15.23;;;15.30;96.70;;;;;;6241978;22;20389;-87
2021/10/11 10:42:34;;;;;;;15.80;12.60;;;15.10;95.90;;;;;;6275364;22;20726;-88
2021/10/11 10:45:01;;;;;;;16.10;14.50;;;15.00;96.90;;;;;;6245022;22;20400;-87
2021/10/11 10:47:38;;;;;;;16.33;14.73;;;14.50;96.60;;;;;;6241599;22;20401;-88
2021/10/11 10:50:13;;;;;;;19.87;15.07;;;14.20;97.50;;;;;;6268774;22;20723;-90
2021/10/11 10:52:39;;;;;;;17.00;15.20;;;14.50;97.60;;;;;;6241088;22;20385;-89
2021/10/11 10:55:05;;;;;;;16.53;14.80;;;14.70;97.70;;;;;;6239487;22;20468;-88
2021/10/11 10:57:39;;;;;;;17.83;14.67;;;15.20;97.80;;;;;;6242004;22;20396;-88
2021/10/11 11:00:13;;;;;;;17.80;15.37;;;15.60;96.50;;;;;;6241909;22;20409;-88
2021/10/11 11:02:50;;;;;;;19.70;15.37;;;15.60;95.80;;;;;;6238887;22;20423;-88
2021/10/11 11:05:22;;;;;;;20.40;15.50;;;15.30;95.40;;;;;;6240357;22;20749;-88
2021/10/11 11:07:50;;;;;;;17.60;15.00;;;15.50;95.10;;;;;;6242278;22;20409;-88
2021/10/11 11:10:24;;;;;;;17.23;15.30;;;15.70;94.90;;;;;;6249427;22;20396;-89
2021/10/11 11:12:54;;;;;;;19.60;16.13;;;15.50;93.20;;;;;;6251338;22;20778;-88
2021/10/11 11:15:29;;;;;;;19.37;16.23;;;15.00;94.60;;;;;;6244086;22;20854;-88
2021/10/11 11:18:00;;;;;;;18.37;15.50;;;15.20;95.40;;;;;;6243828;22;20400;-89
2021/10/11 11:23:34;;;;;;;17.60;15.73;;;15.30;95.90;;;;;;6270986;22;20384;-87
2021/10/11 11:26:05;;;;;;;17.30;15.47;;;15.50;95.70;;;;;;6244029;22;20428;-88
2021/10/11 11:28:32;;;;;;;21.70;16.17;;;16.00;95.20;;;;;;6244052;22;20388;-88
2021/10/11 11:31:07;;;;;;;19.27;15.30;;;16.50;93.70;;;;;;6243579;22;20432;-88
2021/10/11 11:33:34;;;;;;;17.63;15.07;;;16.80;94.80;;;;;;6243863;22;20395;-88
2021/10/11 11:36:04;;;;;;;17.50;14.60;;;16.60;94.00;;;;;;6243332;22;20440;-88
2021/10/11 11:38:35;;;;;;;16.47;14.80;;;16.50;93.70;;;;;;6244253;22;20739;-88
2021/10/11 11:41:02;;;;;;;19.53;15.13;;;16.20;94.00;;;;;;6244069;22;20389;-88
2021/10/11 11:43:33;;;;;;;16.53;13.10;;;15.80;93.70;;;;;;6243887;22;20388;-88
2021/10/11 11:46:00;;;;;;;21.60;14.60;;;15.90;94.60;;;;;;6242401;22;20400;-88
2021/10/11 11:48:32;;;;;;;17.37;13.93;;;16.60;93.50;;;;;;6243563;22;20790;-87
2021/10/11 11:51:05;;;;;;;16.10;14.40;;;17.00;92.60;;;;;;6243610;22;20401;-88
2021/10/11 11:53:33;;;;;;;20.90;15.90;;;16.70;91.90;;;;;;6242823;22;20395;-88
2021/10/11 11:56:02;;;;;;;16.23;14.33;;;16.60;93.70;;;;;;6240811;22;20432;-88
2021/10/11 11:58:34;;;;;;;17.63;15.73;;;16.10;93.70;;;;;;6241910;22;20851;-87
2021/10/11 12:01:13;;;;;;;17.20;15.17;;;16.60;93.50;;;;;;6241830;22;20420;-88
2021/10/11 12:03:51;;;;;;;18.67;15.53;;;17.00;92.90;;;;;;6243035;22;20384;-88
2021/10/11 12:06:25;;;;;;;16.90;15.20;;;16.50;92.90;;;;;;6243105;22;20404;-88
2021/10/11 12:08:51;;;;;;;16.60;15.00;;;16.00;93.20;;;;;;6243198;22;20758;-88
2021/10/11 12:11:20;;;;;;;18.60;15.20;;;16.10;94.00;;;;;;6242120;22;20377;-88
2021/10/11 12:13:47;;;;;;;16.90;15.10;;;16.40;93.10;;;;;;6243185;22;20166;-88
2021/10/11 12:16:16;;;;;;;16.77;15.03;;;16.20;94.00;;;;;;6243580;22;20443;-88
2021/10/11 12:18:51;;;;;;;16.10;14.00;;;16.90;93.60;;;;;;6268555;22;20424;-88
2021/10/11 12:21:27;;;;;;;18.50;16.70;;;17.20;93.10;;;;;;6244273;22;20899;-89
2021/10/11 12:23:55;;;;;;;17.53;15.63;;;17.50;93.10;;;;;;6244065;22;20859;-88
2021/10/11 12:26:23;;;;;;;16.23;14.60;;;17.50;91.90;;;;;;6244836;22;20396;-88
2021/10/11 12:28:52;;;;;;;15.73;14.23;;;17.40;92.00;;;;;;6243050;22;20393;-88
2021/10/11 12:31:26;;;;;;;17.97;15.60;;;18.00;92.40;;;;;;6272427;22;20385;-88
2021/10/11 12:34:02;;;;;;;18.27;16.10;;;18.40;92.00;;;;;;6244054;22;20432;-88
2021/10/11 12:36:29;;;;;;;16.57;14.90;;;17.90;91.30;;;;;;6243847;22;20875;-88
2021/10/11 12:38:55;;;;;;;18.87;15.33;;;17.50;90.60;;;;;;6243073;22;20397;-87